This is the latest recevied weather packets stored in our database for station/object 9W2SHB-13. If no packets are shown the sender has not sent any weather packets the latest 10 day(s).
| Time | Temp. | Humidity | Pressure | Rain* | Wind** | Luminosity | Snow |
|---|---|---|---|---|---|---|---|
| 1777484707 | 31.67° C | 62% | 1028.7 hPa | - | - | - | - |
| 1777483807 | 31.67° C | 62% | 1029 hPa | - | - | - | - |
| 1777481107 | 31.67° C | 62% | 1029.6 hPa | - | - | - | - |
| 1777465808 | 32.78° C | 58% | 1027.3 hPa | - | - | - | - |
| 1777464907 | 32.22° C | 58% | 1027 hPa | - | - | - | - |
| 1777462208 | 32.22° C | 57% | 1026.2 hPa | - | - | - | - |
| 1777461306 | 32.78° C | 57% | 1025.9 hPa | - | - | - | - |
| 1777458607 | 32.78° C | 56% | 1025.3 hPa | - | - | - | - |
| 1777457707 | 33.33° C | 56% | 1025.2 hPa | - | - | - | - |
| 1777455008 | 33.33° C | 56% | 1025.3 hPa | - | - | - | - |
| 1777454107 | 33.33° C | 55% | 1025.4 hPa | - | - | - | - |
| 1777453207 | 32.78° C | 55% | 1025.3 hPa | - | - | - | - |
| 1777452307 | 33.33° C | 54% | 1025.2 hPa | - | - | - | - |
| 1777451406 | 32.78° C | 55% | 1025.3 hPa | - | - | - | - |
| 1777450507 | 32.78° C | 56% | 1025.3 hPa | - | - | - | - |
| 1777449607 | 32.78° C | 56% | 1025.5 hPa | - | - | - | - |
| 1777447806 | 32.78° C | 57% | 1025.9 hPa | - | - | - | - |
| 1777446907 | 32.78° C | 57% | 1025.9 hPa | - | - | - | - |
| 1777446006 | 32.78° C | 58% | 1026.1 hPa | - | - | - | - |
| 1777445107 | 33.33° C | 57% | 1026.4 hPa | - | - | - | - |
| 1777444207 | 32.78° C | 58% | 1026.7 hPa | - | - | - | - |
| 1777443306 | 32.78° C | 58% | 1027 hPa | - | - | - | - |
| 1777442407 | 32.78° C | 58% | 1027.3 hPa | - | - | - | - |
| 1777441506 | 32.78° C | 58% | 1027.5 hPa | - | - | - | - |
| 1777440607 | 32.78° C | 58% | 1027.7 hPa | - | - | - | - |
* Rain since midnight (hover to see other rain measurements)
** Current wind speed in m/s (hover to see current wind gust speed)